Time;durP1;ratioP1;P1;durP2;ratioP2;P2;SDS_P1;SDS_P2;PMS_P1;PMS_P2;Temp;Humidity;BMP_temperature;BMP_pressure;BME280_temperature;BME280_humidity;BME280_pressure;Samples;Min_cycle;Max_cycle;Signal;HPM_P1;HPM_P2
2022/01/08 00:00:48;;;;;;;2.38;0.70;;;25.90;92.50;;;;;;5052379;28;20083;-52
2022/01/08 00:03:15;;;;;;;3.92;1.02;;;25.90;92.50;;;;;;5052610;28;20048;-57
2022/01/08 00:05:43;;;;;;;2.38;0.63;;;26.10;92.30;;;;;;5052549;28;20549;-58
2022/01/08 00:08:10;;;;;;;0.85;0.65;;;26.10;91.90;;;;;;5052005;28;20072;-58
2022/01/08 00:10:39;;;;;;;1.48;0.50;;;26.20;91.90;;;;;;5054736;28;20082;-53
2022/01/08 00:13:06;;;;;;;1.30;0.70;;;26.20;92.00;;;;;;5056923;28;20060;-55
2022/01/08 00:15:34;;;;;;;1.67;0.70;;;26.30;91.80;;;;;;5056268;28;20029;-60
2022/01/08 00:18:02;;;;;;;1.52;0.50;;;26.40;91.50;;;;;;5056458;28;20032;-61
2022/01/08 00:20:30;;;;;;;2.70;0.90;;;26.40;91.60;;;;;;5056463;28;20022;-60
2022/01/08 00:22:57;;;;;;;1.23;0.60;;;26.40;91.60;;;;;;5056130;28;20025;-51
2022/01/08 00:25:25;;;;;;;1.40;0.50;;;26.40;91.70;;;;;;5056379;28;20120;-53
2022/01/08 00:27:52;;;;;;;0.90;0.50;;;26.30;91.80;;;;;;5055700;28;20044;-55
2022/01/08 00:30:20;;;;;;;1.33;0.70;;;26.50;91.30;;;;;;5057607;28;20052;-57
2022/01/08 00:32:48;;;;;;;1.85;1.05;;;26.50;91.20;;;;;;5058587;28;20535;-59
2022/01/08 00:35:17;;;;;;;2.42;0.68;;;26.60;91.10;;;;;;5057998;28;20040;-59
2022/01/08 00:37:45;;;;;;;0.93;0.50;;;26.80;91.00;;;;;;5057343;28;20182;-59
2022/01/08 00:40:13;;;;;;;0.70;0.45;;;26.70;91.10;;;;;;5056614;28;20077;-55
2022/01/08 00:42:41;;;;;;;1.35;0.60;;;26.70;91.20;;;;;;5056955;28;20100;-58
2022/01/08 00:45:09;;;;;;;1.40;0.60;;;26.70;91.20;;;;;;5057196;28;20189;-58
2022/01/08 00:47:37;;;;;;;1.17;0.60;;;26.70;91.30;;;;;;5056517;28;20025;-55
2022/01/08 00:50:05;;;;;;;0.80;0.57;;;26.80;91.00;;;;;;5055429;28;20487;-56
2022/01/08 00:52:33;;;;;;;1.60;0.70;;;26.90;90.60;;;;;;5056969;28;20029;-55
2022/01/08 00:55:00;;;;;;;1.85;0.65;;;27.10;90.50;;;;;;5054565;28;20029;-61
2022/01/08 00:57:27;;;;;;;1.23;0.50;;;27.20;90.50;;;;;;5057207;28;20471;-52
2022/01/08 00:59:55;;;;;;;1.13;0.50;;;27.20;90.30;;;;;;5056424;28;20036;-59
2022/01/08 01:02:22;;;;;;;1.60;0.43;;;27.30;90.40;;;;;;5056766;28;20020;-56
2022/01/08 01:04:50;;;;;;;1.27;0.57;;;27.20;90.30;;;;;;5056349;28;20395;-56
2022/01/08 01:07:17;;;;;;;1.33;0.70;;;27.30;90.00;;;;;;5056660;28;20029;-52
2022/01/08 01:09:44;;;;;;;2.45;0.70;;;27.40;90.00;;;;;;5056161;28;20021;-53
2022/01/08 01:12:13;;;;;;;1.70;0.40;;;27.50;89.80;;;;;;5055378;28;20032;-59
2022/01/08 01:14:40;;;;;;;1.33;0.82;;;27.50;89.90;;;;;;5055701;28;20106;-57
2022/01/08 01:17:08;;;;;;;3.13;0.47;;;27.50;89.10;;;;;;5055591;28;20028;-58
2022/01/08 01:19:36;;;;;;;1.77;0.60;;;27.60;89.10;;;;;;5054049;28;20498;-56
2022/01/08 01:22:05;;;;;;;0.80;0.50;;;27.70;88.80;;;;;;5054564;28;20387;-59
2022/01/08 01:24:34;;;;;;;1.45;0.65;;;27.70;88.70;;;;;;5056026;28;20493;-54
2022/01/08 01:30:01;;;;;;;0.77;0.40;;;27.60;89.80;;;;;;5055328;28;20017;-56
2022/01/08 01:43:37;;;;;;;1.92;0.98;;;27.80;89.10;;;;;;5055500;28;20079;-51
2022/01/08 01:48:50;;;;;;;1.02;0.57;;;27.80;89.40;;;;;;5055259;28;20035;-57
2022/01/08 01:51:22;;;;;;;0.60;0.43;;;27.70;88.40;;;;;;5055708;28;20452;-47
2022/01/08 01:53:51;;;;;;;1.60;0.82;;;27.90;88.40;;;;;;5054998;28;20487;-57
2022/01/08 01:56:22;;;;;;;4.60;0.90;;;28.10;87.30;;;;;;5054561;28;20031;-56
2022/01/08 01:58:50;;;;;;;6.82;0.90;;;28.10;86.80;;;;;;5054507;28;20093;-54
2022/01/08 02:01:18;;;;;;;1.70;0.70;;;28.20;86.30;;;;;;5054714;28;20036;-56
2022/01/08 02:03:45;;;;;;;0.32;0.32;;;28.30;85.40;;;;;;5053723;28;20021;-52
2022/01/08 02:06:13;;;;;;;0.80;0.50;;;28.30;87.50;;;;;;5054665;28;20037;-56
2022/01/08 02:08:42;;;;;;;1.83;1.05;;;28.30;87.30;;;;;;5055184;28;20028;-59
2022/01/08 02:11:10;;;;;;;2.60;0.60;;;28.20;86.80;;;;;;5055156;28;20376;-57
2022/01/08 02:13:38;;;;;;;0.60;0.57;;;28.20;87.60;;;;;;5070320;28;20036;-53
2022/01/08 02:16:07;;;;;;;0.70;0.45;;;28.10;88.90;;;;;;5054597;28;20029;-60
2022/01/08 02:18:34;;;;;;;0.93;0.90;;;27.80;89.80;;;;;;5054734;28;20025;-56
2022/01/08 02:21:03;;;;;;;1.50;0.57;;;28.10;87.90;;;;;;5054355;28;20108;-56
2022/01/08 02:23:31;;;;;;;2.17;1.02;;;28.10;88.40;;;;;;5054909;28;20102;-57
2022/01/08 02:26:09;;;;;;;1.20;1.00;;;28.20;88.30;;;;;;5053910;28;20025;-56
2022/01/08 02:28:38;;;;;;;0.57;0.40;;;28.30;87.30;;;;;;5054248;28;20416;-60
2022/01/08 02:31:07;;;;;;;0.65;0.40;;;28.40;88.00;;;;;;5054603;28;20028;-53
2022/01/08 02:33:36;;;;;;;0.47;0.45;;;28.20;88.40;;;;;;5053300;28;20028;-50
2022/01/08 02:36:08;;;;;;;1.17;0.73;;;28.10;89.10;;;;;;5053998;28;20031;-56
2022/01/08 02:38:35;;;;;;;0.50;0.50;;;28.10;89.30;;;;;;5053962;28;20032;-49
2022/01/08 02:41:06;;;;;;;0.82;0.50;;;28.20;88.70;;;;;;5051475;28;20388;-58
2022/01/08 02:43:40;;;;;;;1.23;0.60;;;28.20;88.90;;;;;;5069414;28;20032;-55
2022/01/08 02:46:08;;;;;;;2.15;0.90;;;28.10;89.10;;;;;;5054044;28;20033;-55
2022/01/08 02:48:36;;;;;;;0.80;0.73;;;28.20;88.30;;;;;;5053608;28;20022;-60
2022/01/08 02:51:04;;;;;;;1.10;0.50;;;28.30;87.10;;;;;;5035878;28;20025;-53
2022/01/08 02:53:33;;;;;;;2.35;1.08;;;28.40;88.00;;;;;;5052919;28;20128;-60
2022/01/08 02:56:04;;;;;;;1.30;0.75;;;28.40;87.70;;;;;;5053547;28;20037;-55
2022/01/08 02:58:38;;;;;;;1.05;0.70;;;28.30;88.80;;;;;;5053779;28;20064;-58
2022/01/08 03:01:05;;;;;;;0.90;0.60;;;28.40;87.60;;;;;;5053365;28;20474;-55
2022/01/08 03:03:34;;;;;;;1.00;0.63;;;28.40;88.10;;;;;;5053532;28;20104;-50
2022/01/08 03:06:02;;;;;;;1.27;0.60;;;28.40;88.10;;;;;;5052783;28;20039;-58
2022/01/08 03:08:30;;;;;;;1.25;0.80;;;28.40;88.40;;;;;;5051725;28;20052;-54
2022/01/08 03:10:57;;;;;;;0.60;0.50;;;28.50;87.60;;;;;;5053407;28;20040;-59
2022/01/08 03:13:25;;;;;;;1.58;0.85;;;28.50;88.10;;;;;;5054525;28;20050;-59
2022/01/08 03:15:55;;;;;;;1.67;0.90;;;28.40;87.90;;;;;;5052448;28;20033;-50
2022/01/08 03:18:23;;;;;;;2.20;0.70;;;28.50;87.50;;;;;;5052980;28;20021;-58
2022/01/08 03:21:01;;;;;;;1.17;0.70;;;28.60;87.10;;;;;;5053347;28;20475;-51
2022/01/08 03:23:46;;;;;;;0.57;0.40;;;28.60;87.40;;;;;;5051793;28;20026;-54
2022/01/08 03:26:14;;;;;;;2.33;0.80;;;28.60;88.10;;;;;;5052956;28;20056;-53
2022/01/08 03:29:02;;;;;;;1.75;0.80;;;28.70;86.40;;;;;;5052971;28;20031;-58
2022/01/08 03:31:29;;;;;;;1.27;0.90;;;28.80;87.00;;;;;;5053223;28;20033;-57
2022/01/08 03:33:57;;;;;;;0.80;0.70;;;28.70;86.50;;;;;;5053475;28;20487;-56
2022/01/08 03:36:25;;;;;;;2.67;0.90;;;28.50;88.10;;;;;;5052470;28;20021;-54
2022/01/08 03:38:53;;;;;;;1.85;0.77;;;28.50;88.20;;;;;;5053595;28;20071;-54
2022/01/08 03:41:42;;;;;;;0.90;0.57;;;28.40;88.90;;;;;;5053737;28;20467;-59
2022/01/08 03:44:10;;;;;;;0.90;0.60;;;28.40;88.70;;;;;;5052426;28;20036;-54
2022/01/08 03:46:38;;;;;;;1.00;0.90;;;28.50;88.20;;;;;;5052266;28;20021;-53
2022/01/08 03:51:45;;;;;;;0.98;0.63;;;28.50;88.80;;;;;;5052437;28;20014;-53
2022/01/08 03:54:13;;;;;;;1.38;0.70;;;28.40;89.50;;;;;;5052039;28;20057;-54
2022/01/08 03:56:43;;;;;;;0.50;0.50;;;28.50;88.40;;;;;;5052823;28;20045;-59
2022/01/08 03:59:11;;;;;;;1.05;0.52;;;28.40;88.90;;;;;;5053201;28;20038;-62
2022/01/08 04:01:38;;;;;;;1.85;0.88;;;28.40;88.60;;;;;;5052992;28;20029;-59
2022/01/08 04:04:06;;;;;;;2.00;0.80;;;28.30;89.20;;;;;;5051392;28;20442;-54
2022/01/08 04:06:33;;;;;;;0.90;0.70;;;28.30;89.10;;;;;;5052028;28;20098;-56
2022/01/08 04:09:01;;;;;;;0.50;0.43;;;28.30;89.20;;;;;;5051894;28;20020;-58
2022/01/08 04:11:28;;;;;;;1.08;0.52;;;28.20;89.90;;;;;;5052977;28;20032;-63
2022/01/08 04:13:56;;;;;;;0.82;0.70;;;28.20;90.10;;;;;;5052921;28;20111;-56
2022/01/08 04:16:30;;;;;;;0.63;0.55;;;28.10;88.90;;;;;;5052485;28;20033;-59
2022/01/08 04:19:00;;;;;;;0.82;0.60;;;28.20;90.10;;;;;;5052207;28;20079;-54
2022/01/08 04:24:05;;;;;;;0.68;0.68;;;28.10;89.90;;;;;;5052626;28;20028;-59
2022/01/08 04:26:32;;;;;;;0.90;0.55;;;28.10;90.30;;;;;;5053287;28;20352;-57
2022/01/08 04:29:00;;;;;;;0.82;0.55;;;28.20;90.20;;;;;;5052841;28;20025;-56
2022/01/08 04:31:27;;;;;;;0.82;0.75;;;28.10;90.30;;;;;;5052558;28;20039;-59
2022/01/08 04:33:55;;;;;;;0.70;0.70;;;28.10;90.30;;;;;;5052041;28;20025;-57
2022/01/08 04:36:23;;;;;;;0.95;0.75;;;28.10;90.30;;;;;;5052839;28;20365;-59
2022/01/08 04:38:51;;;;;;;1.13;0.90;;;28.10;90.50;;;;;;5052856;28;20025;-59
2022/01/08 04:41:18;;;;;;;0.73;0.60;;;28.10;90.40;;;;;;5052222;28;20029;-56
2022/01/08 04:43:46;;;;;;;0.88;0.70;;;28.20;89.90;;;;;;5052716;28;20049;-61
2022/01/08 04:46:14;;;;;;;0.93;0.60;;;28.20;90.30;;;;;;5052158;28;20028;-50
2022/01/08 04:48:43;;;;;;;0.90;0.60;;;28.10;90.30;;;;;;5052350;28;20399;-60
2022/01/08 04:51:10;;;;;;;0.93;0.70;;;28.10;90.60;;;;;;5051142;28;20025;-57
2022/01/08 04:53:37;;;;;;;0.70;0.70;;;28.10;90.30;;;;;;5052602;28;20055;-49
2022/01/08 04:56:05;;;;;;;0.60;0.43;;;28.10;90.50;;;;;;5052135;28;20045;-54
2022/01/08 04:58:33;;;;;;;0.75;0.55;;;28.10;90.50;;;;;;5056080;28;20024;-60
2022/01/08 05:01:00;;;;;;;0.98;0.80;;;28.10;90.60;;;;;;5056450;28;20122;-60
2022/01/08 05:03:28;;;;;;;1.98;0.75;;;28.10;90.40;;;;;;5056569;28;20057;-59
2022/01/08 05:05:55;;;;;;;0.73;0.50;;;28.00;90.40;;;;;;5056732;28;20110;-62
2022/01/08 05:08:23;;;;;;;1.25;0.70;;;28.00;90.40;;;;;;5055310;28;20024;-60
2022/01/08 05:10:50;;;;;;;0.60;0.60;;;28.10;90.40;;;;;;5056143;28;20052;-59
2022/01/08 05:13:18;;;;;;;0.82;0.68;;;28.10;90.70;;;;;;5055715;28;20035;-55
2022/01/08 05:15:45;;;;;;;0.57;0.47;;;28.10;90.30;;;;;;5055043;28;20567;-60
2022/01/08 05:18:13;;;;;;;0.65;0.50;;;28.10;90.40;;;;;;5055108;28;20029;-60
2022/01/08 05:20:44;;;;;;;1.48;0.85;;;28.10;90.70;;;;;;5054960;28;20384;-58
2022/01/08 05:23:11;;;;;;;;;;;28.00;90.40;;;;;;5055600;28;20035;-55
2022/01/08 05:25:39;;;;;;;1.25;0.80;;;28.00;90.40;;;;;;5055213;28;20359;-56
2022/01/08 05:28:09;;;;;;;0.90;0.68;;;28.10;90.30;;;;;;5070574;28;20075;-57
2022/01/08 05:30:37;;;;;;;0.75;0.60;;;28.00;90.60;;;;;;5055686;28;20021;-57
2022/01/08 05:33:04;;;;;;;0.75;0.70;;;28.00;90.80;;;;;;5055328;28;20029;-61
2022/01/08 05:35:31;;;;;;;0.63;0.57;;;27.90;90.90;;;;;;5055286;28;20040;-58
2022/01/08 05:37:59;;;;;;;0.93;0.70;;;27.90;90.70;;;;;;5055040;28;20379;-54
2022/01/08 05:40:27;;;;;;;0.40;0.40;;;27.90;90.60;;;;;;5054956;28;20503;-59
2022/01/08 05:42:54;;;;;;;1.38;0.93;;;27.90;90.50;;;;;;5054094;28;20423;-56
2022/01/08 05:45:22;;;;;;;0.70;0.68;;;27.90;90.90;;;;;;5054822;28;20115;-56
2022/01/08 05:47:49;;;;;;;0.90;0.65;;;27.90;90.90;;;;;;5055312;28;20033;-58
2022/01/08 05:50:17;;;;;;;1.55;0.70;;;27.90;91.00;;;;;;5055197;28;20033;-59
2022/01/08 05:52:44;;;;;;;0.80;0.68;;;27.90;90.40;;;;;;5055085;28;20056;-56
2022/01/08 05:55:12;;;;;;;0.90;0.55;;;27.90;90.80;;;;;;5054714;28;20078;-61
2022/01/08 05:57:39;;;;;;;1.10;0.60;;;27.90;89.80;;;;;;5055075;28;20075;-60
2022/01/08 06:00:08;;;;;;;1.15;0.63;;;27.90;91.00;;;;;;5054636;28;20028;-60
2022/01/08 06:02:37;;;;;;;1.58;0.50;;;27.90;90.80;;;;;;5055170;28;20036;-55
2022/01/08 06:05:06;;;;;;;0.70;0.70;;;27.80;90.50;;;;;;5055169;28;20413;-61
2022/01/08 06:07:34;;;;;;;0.73;0.40;;;27.80;91.20;;;;;;5054309;28;20075;-61
2022/01/08 06:10:05;;;;;;;1.63;0.70;;;27.80;91.20;;;;;;5055115;28;20475;-61
2022/01/08 06:12:32;;;;;;;1.20;0.50;;;27.70;90.80;;;;;;5069372;28;20032;-56
2022/01/08 06:15:00;;;;;;;0.73;0.50;;;27.80;91.00;;;;;;5054757;28;20491;-57
2022/01/08 06:17:27;;;;;;;2.05;1.08;;;27.80;91.00;;;;;;5054732;28;20158;-55
2022/01/08 06:19:55;;;;;;;1.13;0.60;;;27.70;90.50;;;;;;5054186;28;20078;-55
2022/01/08 06:22:23;;;;;;;0.70;0.52;;;27.70;90.90;;;;;;5053731;28;20021;-60
2022/01/08 06:24:50;;;;;;;0.90;0.70;;;27.70;91.20;;;;;;5054841;28;20025;-60
2022/01/08 06:27:18;;;;;;;0.70;0.50;;;27.60;91.40;;;;;;5054674;28;20046;-59
2022/01/08 06:29:45;;;;;;;0.77;0.63;;;27.50;91.40;;;;;;5054549;28;20502;-58
2022/01/08 06:32:14;;;;;;;0.57;0.55;;;27.40;91.30;;;;;;5054059;28;20021;-59
2022/01/08 06:34:42;;;;;;;0.40;0.40;;;27.50;91.40;;;;;;5053978;28;20090;-56
2022/01/08 06:37:10;;;;;;;1.05;0.50;;;27.40;91.30;;;;;;5052999;28;20028;-61
2022/01/08 06:39:38;;;;;;;0.40;0.40;;;27.40;90.60;;;;;;5055559;28;20044;-62
2022/01/08 06:42:05;;;;;;;1.85;0.98;;;27.40;90.90;;;;;;5054266;28;20032;-61
2022/01/08 06:44:33;;;;;;;1.35;0.65;;;27.40;90.80;;;;;;5054205;28;20017;-58
2022/01/08 06:47:12;;;;;;;0.88;0.68;;;27.40;90.80;;;;;;5054465;28;20112;-59
2022/01/08 06:49:40;;;;;;;0.98;0.80;;;27.40;91.00;;;;;;5053654;28;20025;-59
2022/01/08 06:52:08;;;;;;;1.15;0.60;;;27.40;91.00;;;;;;5054440;28;20060;-59
2022/01/08 06:54:38;;;;;;;0.60;0.50;;;27.30;90.90;;;;;;5054654;28;20051;-58
2022/01/08 06:57:06;;;;;;;1.27;0.82;;;27.30;91.20;;;;;;5054269;28;20025;-60
2022/01/08 06:59:33;;;;;;;1.60;0.93;;;27.20;91.30;;;;;;5054304;28;20483;-59
2022/01/08 07:02:01;;;;;;;1.60;1.00;;;27.20;91.50;;;;;;5054525;28;20365;-60
2022/01/08 07:04:28;;;;;;;0.75;0.55;;;27.10;91.80;;;;;;5053908;28;20048;-61
2022/01/08 07:06:56;;;;;;;3.65;1.10;;;27.10;92.10;;;;;;5052618;28;20095;-61
2022/01/08 07:09:24;;;;;;;1.70;0.70;;;27.10;92.40;;;;;;5053611;28;20036;-58
2022/01/08 07:11:53;;;;;;;1.10;0.80;;;27.00;92.40;;;;;;5053634;28;20028;-56
2022/01/08 07:14:20;;;;;;;0.98;0.63;;;26.90;92.50;;;;;;5053381;28;20128;-59
2022/01/08 07:16:48;;;;;;;0.85;0.73;;;26.90;92.60;;;;;;5036194;28;20100;-61
2022/01/08 07:19:18;;;;;;;1.17;0.70;;;26.80;92.60;;;;;;5053007;28;20032;-58
2022/01/08 07:21:45;;;;;;;1.52;0.70;;;26.70;92.80;;;;;;5053618;28;20017;-61
2022/01/08 07:24:13;;;;;;;1.52;1.02;;;26.70;92.90;;;;;;5053617;28;20027;-52
2022/01/08 07:26:40;;;;;;;1.60;0.98;;;26.60;92.90;;;;;;5053593;28;20112;-60
2022/01/08 07:29:08;;;;;;;2.47;1.30;;;26.60;93.00;;;;;;5053706;28;20032;-60
2022/01/08 07:31:35;;;;;;;1.92;0.90;;;26.50;93.10;;;;;;5053707;28;20025;-62
2022/01/08 07:34:02;;;;;;;1.02;0.80;;;26.40;93.10;;;;;;5053971;28;20033;-57
2022/01/08 07:36:33;;;;;;;1.02;0.60;;;26.40;93.20;;;;;;5052136;28;20040;-59
2022/01/08 07:39:00;;;;;;;0.70;0.70;;;26.40;93.40;;;;;;5053633;28;20539;-56
2022/01/08 07:41:28;;;;;;;1.42;0.75;;;26.30;93.40;;;;;;5053543;28;20051;-57
2022/01/08 07:43:58;;;;;;;1.85;0.90;;;26.30;93.50;;;;;;5053607;28;20033;-56
2022/01/08 07:46:26;;;;;;;1.20;0.90;;;26.30;93.60;;;;;;5053745;28;20109;-54
2022/01/08 07:48:53;;;;;;;1.23;0.80;;;26.30;93.60;;;;;;5053137;28;20464;-60
2022/01/08 07:51:20;;;;;;;1.50;0.82;;;26.30;93.60;;;;;;5053406;28;20033;-60
2022/01/08 07:53:48;;;;;;;1.45;0.70;;;26.30;93.60;;;;;;5052471;28;20490;-59
2022/01/08 07:56:15;;;;;;;1.23;0.73;;;26.30;93.70;;;;;;5052631;28;20108;-60
2022/01/08 07:58:43;;;;;;;1.05;0.80;;;26.20;93.70;;;;;;5052585;28;20025;-61
2022/01/08 08:01:10;;;;;;;1.38;0.80;;;26.20;93.60;;;;;;5053084;28;20116;-58
2022/01/08 08:03:37;;;;;;;0.77;0.70;;;26.20;93.70;;;;;;5052914;28;20091;-60
2022/01/08 08:06:23;;;;;;;1.27;0.63;;;26.20;93.70;;;;;;5052808;28;20021;-58
2022/01/08 08:15:34;;;;;;;2.33;0.90;;;26.10;93.80;;;;;;5052847;28;20324;-58
2022/01/08 08:18:02;;;;;;;1.25;0.90;;;26.00;93.80;;;;;;5052151;28;20029;-60
2022/01/08 08:20:29;;;;;;;3.08;0.60;;;26.00;93.80;;;;;;5052584;28;20031;-62
2022/01/08 08:22:57;;;;;;;1.70;0.70;;;26.10;93.90;;;;;;5052366;28;20533;-59
2022/01/08 08:25:24;;;;;;;0.82;0.70;;;26.00;93.80;;;;;;5052487;28;20028;-57
2022/01/08 08:27:52;;;;;;;1.63;0.90;;;26.00;93.80;;;;;;5052344;28;20018;-53
2022/01/08 08:30:21;;;;;;;0.77;0.68;;;26.00;93.80;;;;;;5052587;28;20029;-54
2022/01/08 08:32:49;;;;;;;0.88;0.70;;;26.00;94.10;;;;;;5056526;28;20021;-54
2022/01/08 08:35:18;;;;;;;4.40;0.70;;;25.90;93.80;;;;;;5056263;28;20041;-59
2022/01/08 08:37:45;;;;;;;0.98;0.65;;;25.90;93.90;;;;;;5056440;28;20032;-54
2022/01/08 08:40:14;;;;;;;1.17;0.75;;;25.90;93.90;;;;;;5056048;28;20114;-57
2022/01/08 08:42:42;;;;;;;0.65;0.60;;;25.90;94.00;;;;;;5055861;28;20033;-59
2022/01/08 08:45:13;;;;;;;1.25;0.88;;;25.80;94.00;;;;;;5055102;28;20033;-62
2022/01/08 08:47:45;;;;;;;1.23;0.75;;;25.80;94.00;;;;;;5056220;28;20060;-59
2022/01/08 08:50:14;;;;;;;1.73;0.75;;;25.80;94.00;;;;;;5055952;28;20044;-59
2022/01/08 08:52:46;;;;;;;1.00;0.82;;;25.80;94.10;;;;;;5056478;28;20021;-52
2022/01/08 08:55:14;;;;;;;;;;;25.80;94.10;;;;;;5056774;28;20491;-60
2022/01/08 08:57:42;;;;;;;1.42;0.80;;;25.70;94.10;;;;;;5055765;28;20409;-55
2022/01/08 09:00:10;;;;;;;0.75;0.50;;;25.70;94.10;;;;;;5055683;28;20029;-60
2022/01/08 09:02:38;;;;;;;1.50;1.13;;;25.70;94.20;;;;;;5054843;28;20021;-59
2022/01/08 09:05:06;;;;;;;0.82;0.70;;;25.70;94.20;;;;;;5056036;28;20100;-61
2022/01/08 09:07:34;;;;;;;0.85;0.73;;;25.60;94.20;;;;;;5055834;28;20032;-60
2022/01/08 09:10:07;;;;;;;0.80;0.70;;;25.60;94.30;;;;;;5055571;28;20027;-56
2022/01/08 09:12:34;;;;;;;2.35;0.70;;;25.60;94.30;;;;;;5055701;28;20112;-60
2022/01/08 09:15:02;;;;;;;2.08;1.20;;;25.60;94.40;;;;;;5056170;28;20032;-61
2022/01/08 09:17:30;;;;;;;1.52;0.85;;;25.60;94.40;;;;;;5056504;28;20025;-59
2022/01/08 09:19:57;;;;;;;1.45;0.82;;;25.50;94.40;;;;;;5055588;28;20052;-58
2022/01/08 09:22:25;;;;;;;4.00;0.95;;;25.50;94.40;;;;;;5055962;28;20025;-55
2022/01/08 09:24:56;;;;;;;1.70;0.77;;;25.50;94.50;;;;;;5055856;28;20356;-59
2022/01/08 09:27:24;;;;;;;2.13;0.88;;;25.50;94.50;;;;;;5054844;28;20029;-61
2022/01/08 09:29:54;;;;;;;1.58;0.80;;;25.50;94.60;;;;;;5055700;28;20091;-65
2022/01/08 09:32:23;;;;;;;1.55;0.80;;;25.50;94.60;;;;;;5055988;28;20089;-57
2022/01/08 09:34:54;;;;;;;1.88;0.80;;;25.50;94.60;;;;;;5055728;28;20046;-59
2022/01/08 09:37:26;;;;;;;1.08;0.70;;;25.40;94.60;;;;;;5055847;28;20482;-57
2022/01/08 09:39:54;;;;;;;1.83;0.90;;;25.40;94.60;;;;;;5056835;28;20129;-56
2022/01/08 09:42:24;;;;;;;0.75;0.70;;;25.40;94.60;;;;;;5055619;28;20025;-60
2022/01/08 09:44:55;;;;;;;0.68;0.68;;;25.40;94.70;;;;;;5055176;28;20032;-56
2022/01/08 09:47:28;;;;;;;4.57;0.90;;;25.40;94.70;;;;;;5056560;28;20021;-58
2022/01/08 09:49:56;;;;;;;2.28;1.00;;;25.40;94.70;;;;;;5055688;28;20099;-56
2022/01/08 09:52:29;;;;;;;2.80;0.70;;;25.30;94.70;;;;;;5056400;28;20125;-57
2022/01/08 09:54:56;;;;;;;1.65;0.85;;;25.30;94.70;;;;;;5055938;28;20404;-59
2022/01/08 09:57:26;;;;;;;1.33;0.75;;;25.30;94.70;;;;;;5055437;28;20029;-57
2022/01/08 09:59:57;;;;;;;1.10;1.00;;;25.30;94.70;;;;;;5055692;28;20036;-61
2022/01/08 10:02:25;;;;;;;2.30;0.90;;;25.30;94.70;;;;;;5055258;28;20029;-60
2022/01/08 10:05:13;;;;;;;1.73;0.70;;;25.30;94.70;;;;;;5055656;28;20447;-59
2022/01/08 10:07:41;;;;;;;1.42;0.70;;;25.20;94.70;;;;;;5054088;28;20082;-60
2022/01/08 10:10:20;;;;;;;2.10;0.90;;;25.20;94.70;;;;;;5055103;28;20359;-61
2022/01/08 10:13:00;;;;;;;1.33;0.70;;;25.20;94.70;;;;;;5053888;28;20531;-62
2022/01/08 10:18:36;;;;;;;1.27;0.60;;;25.20;94.70;;;;;;5055464;28;20561;-59
2022/01/08 10:21:34;;;;;;;2.38;0.98;;;25.20;94.80;;;;;;5055043;28;20028;-60
2022/01/08 10:24:22;;;;;;;1.40;0.80;;;25.20;94.80;;;;;;5054906;28;20155;-59
2022/01/08 10:26:51;;;;;;;1.88;0.82;;;25.20;94.80;;;;;;5053302;28;20030;-57
2022/01/08 10:29:21;;;;;;;1.48;0.60;;;25.20;94.80;;;;;;5054328;28;20524;-58
2022/01/08 10:31:53;;;;;;;1.08;0.63;;;25.20;94.80;;;;;;5053680;28;20025;-63
2022/01/08 10:34:23;;;;;;;1.23;0.70;;;25.20;94.80;;;;;;5054587;28;20167;-60
2022/01/08 10:36:59;;;;;;;1.48;0.50;;;25.10;94.80;;;;;;5054540;28;20032;-55
2022/01/08 10:39:32;;;;;;;1.15;0.63;;;25.20;94.80;;;;;;5054612;28;20035;-57
2022/01/08 10:42:07;;;;;;;2.42;0.90;;;25.20;94.80;;;;;;5053975;28;20037;-59
2022/01/08 10:44:35;;;;;;;1.27;0.70;;;25.10;94.80;;;;;;5054057;28;20082;-59
2022/01/08 10:47:09;;;;;;;1.23;0.57;;;25.10;94.80;;;;;;5054476;28;20075;-56
2022/01/08 10:49:42;;;;;;;2.08;0.88;;;25.10;94.80;;;;;;5054195;28;20045;-62
2022/01/08 10:52:13;;;;;;;1.98;0.80;;;25.10;94.80;;;;;;5054100;28;20055;-60
2022/01/08 10:54:43;;;;;;;1.35;0.80;;;25.10;94.80;;;;;;5053020;28;20037;-61
2022/01/08 10:57:14;;;;;;;1.10;0.65;;;25.10;94.80;;;;;;5053807;28;20055;-59
2022/01/08 11:00:04;;;;;;;2.35;0.80;;;25.10;94.80;;;;;;5053883;28;20021;-59
2022/01/08 11:02:32;;;;;;;1.98;0.70;;;25.10;94.80;;;;;;5053924;28;20475;-60
2022/01/08 11:05:08;;;;;;;2.13;1.02;;;25.00;94.70;;;;;;5053864;28;20025;-60
2022/01/08 11:07:41;;;;;;;2.15;0.73;;;25.00;94.80;;;;;;5054255;28;20028;-62
2022/01/08 11:10:16;;;;;;;1.73;0.82;;;25.10;94.80;;;;;;5053454;28;20447;-61
2022/01/08 11:12:46;;;;;;;1.45;0.88;;;25.00;94.80;;;;;;5053740;28;20033;-61
2022/01/08 11:18:00;;;;;;;1.88;0.90;;;25.00;94.80;;;;;;5054663;28;20147;-60
2022/01/08 11:20:34;;;;;;;2.35;1.00;;;25.00;94.80;;;;;;5054611;28;20056;-57
2022/01/08 11:23:03;;;;;;;1.27;0.80;;;25.00;94.80;;;;;;5054694;28;20056;-55
2022/01/08 11:25:35;;;;;;;1.33;0.88;;;25.00;94.80;;;;;;5052532;28;20102;-60
2022/01/08 11:28:13;;;;;;;2.70;1.00;;;25.00;95.10;;;;;;5053460;28;20029;-57
2022/01/08 11:30:58;;;;;;;3.53;1.10;;;25.00;94.80;;;;;;5054067;28;20024;-59
2022/01/08 11:33:30;;;;;;;1.33;1.02;;;25.00;94.80;;;;;;5053556;28;20029;-60
2022/01/08 11:35:58;;;;;;;1.02;0.75;;;25.00;94.80;;;;;;5053118;28;20036;-59
2022/01/08 11:38:27;;;;;;;2.78;1.08;;;25.00;94.80;;;;;;5053243;28;20025;-58
2022/01/08 11:40:57;;;;;;;1.55;0.70;;;25.00;94.80;;;;;;5052539;28;20056;-60
2022/01/08 11:43:27;;;;;;;4.35;1.05;;;25.00;94.80;;;;;;5052633;28;20079;-61
2022/01/08 11:46:02;;;;;;;1.50;1.00;;;25.00;94.80;;;;;;5051797;28;20060;-54
2022/01/08 11:48:40;;;;;;;1.30;0.82;;;25.00;94.80;;;;;;5053021;28;20048;-61
2022/01/08 11:51:14;;;;;;;1.83;0.90;;;25.00;94.80;;;;;;5052955;28;20037;-60
2022/01/08 11:53:59;;;;;;;1.90;0.82;;;25.00;94.80;;;;;;5053335;28;20468;-60
2022/01/08 11:56:40;;;;;;;3.35;1.25;;;24.90;94.70;;;;;;5052799;28;20067;-58
2022/01/08 11:59:21;;;;;;;1.05;0.77;;;25.00;94.80;;;;;;5053314;28;20460;-59
2022/01/08 12:02:08;;;;;;;1.20;0.90;;;24.90;94.80;;;;;;5053997;28;20118;-60
2022/01/08 12:04:36;;;;;;;4.13;1.15;;;24.90;94.70;;;;;;5053061;28;20033;-63
2022/01/08 12:07:38;;;;;;;2.55;1.30;;;24.90;94.80;;;;;;5052946;28;20028;-62
2022/01/08 12:10:30;;;;;;;1.40;0.77;;;24.90;94.70;;;;;;5052795;28;20025;-60
2022/01/08 12:13:03;;;;;;;2.80;1.10;;;24.90;94.70;;;;;;5053047;28;20056;-58
2022/01/08 12:15:54;;;;;;;1.48;1.05;;;25.00;94.80;;;;;;5052762;28;20083;-56
2022/01/08 12:18:27;;;;;;;1.10;0.93;;;24.90;94.70;;;;;;5052762;28;20379;-53
2022/01/08 12:21:00;;;;;;;1.85;0.98;;;24.90;94.70;;;;;;5052784;28;20033;-55
2022/01/08 12:23:41;;;;;;;1.88;0.77;;;24.90;94.70;;;;;;5053195;28;20112;-55
2022/01/08 12:26:32;;;;;;;1.63;1.08;;;24.90;94.70;;;;;;5052838;28;20143;-52
2022/01/08 12:29:04;;;;;;;1.23;0.88;;;24.90;94.70;;;;;;5047066;28;20116;-55
2022/01/08 12:31:50;;;;;;;2.45;1.10;;;24.90;94.70;;;;;;5052715;28;20029;-59
2022/01/08 12:34:44;;;;;;;3.03;1.20;;;24.90;94.70;;;;;;5053934;28;20119;-55
2022/01/08 12:37:13;;;;;;;2.15;0.88;;;24.90;94.70;;;;;;5053475;28;20031;-60
2022/01/08 12:39:48;;;;;;;2.40;1.30;;;24.90;95.00;;;;;;5053279;28;20364;-60
2022/01/08 12:42:26;;;;;;;1.15;0.80;;;24.90;94.70;;;;;;5052513;28;20086;-59
2022/01/08 12:45:02;;;;;;;3.20;1.42;;;24.90;94.70;;;;;;5051260;28;20117;-58
2022/01/08 12:47:41;;;;;;;2.70;1.10;;;24.90;94.70;;;;;;5052643;28;20033;-59
2022/01/08 12:50:21;;;;;;;2.15;1.05;;;24.90;94.70;;;;;;5052176;28;20037;-55
2022/01/08 12:53:07;;;;;;;4.60;1.55;;;24.90;94.70;;;;;;5052270;28;20506;-59
2022/01/08 12:55:55;;;;;;;2.70;1.08;;;24.90;94.70;;;;;;5051021;28;20046;-58
2022/01/08 12:58:27;;;;;;;2.70;1.27;;;24.90;94.80;;;;;;5052093;28;20032;-53
2022/01/08 13:00:59;;;;;;;2.55;1.13;;;24.80;94.80;;;;;;5052237;28;20383;-61
2022/01/08 13:03:41;;;;;;;2.33;1.00;;;24.90;94.80;;;;;;5052349;28;20104;-61
2022/01/08 13:06:14;;;;;;;2.75;0.98;;;24.80;94.80;;;;;;5052388;28;20055;-60
2022/01/08 13:08:44;;;;;;;3.75;0.98;;;24.80;94.70;;;;;;5052519;28;20029;-60
2022/01/08 13:11:14;;;;;;;2.47;1.20;;;24.80;94.80;;;;;;5052591;28;20017;-56
2022/01/08 13:13:53;;;;;;;2.17;1.02;;;24.80;94.80;;;;;;5051021;28;20058;-57
2022/01/08 13:16:33;;;;;;;2.58;1.40;;;24.80;94.80;;;;;;5052216;28;20032;-61
2022/01/08 13:19:39;;;;;;;4.22;1.23;;;24.80;94.80;;;;;;5054244;28;20029;-58
2022/01/08 13:22:07;;;;;;;3.13;1.10;;;24.80;94.80;;;;;;5013345;28;20054;-57
2022/01/08 13:24:48;;;;;;;2.88;1.08;;;24.80;94.80;;;;;;5013533;28;20101;-59
2022/01/08 13:27:22;;;;;;;3.20;1.10;;;24.70;94.80;;;;;;5038001;28;20166;-60
2022/01/08 13:29:52;;;;;;;3.70;1.33;;;24.70;94.90;;;;;;5055464;28;20021;-58
2022/01/08 13:32:22;;;;;;;2.80;1.10;;;24.70;94.90;;;;;;5055180;28;20037;-61
2022/01/08 13:35:00;;;;;;;1.88;1.02;;;24.70;94.90;;;;;;5055004;28;20032;-61
2022/01/08 13:37:29;;;;;;;4.05;1.50;;;24.70;94.90;;;;;;5054879;28;20037;-60
2022/01/08 13:40:05;;;;;;;4.45;1.30;;;24.70;94.90;;;;;;5054931;28;20033;-60